Time;durP1;ratioP1;P1;durP2;ratioP2;P2;SDS_P1;SDS_P2;PMS_P1;PMS_P2;Temp;Humidity;BMP_temperature;BMP_pressure;BME280_temperature;BME280_humidity;BME280_pressure;Samples;Min_cycle;Max_cycle;Signal;HPM_P1;HPM_P2
2024/03/24 00:02:51;;;;;;;0.00;0.00;;;;;;;-139.19;100.00;56970.53;5071478;28;20052;-65
2024/03/24 00:06:15;;;;;;;0.10;0.10;;;;;;;-139.19;100.00;56970.53;5079774;28;20081;-65
2024/03/24 00:09:38;;;;;;;0.10;0.10;;;;;;;-139.19;100.00;56970.53;5094603;28;20107;-65
2024/03/24 00:13:02;;;;;;;0.10;0.10;;;;;;;-139.19;100.00;56970.53;5064980;28;20108;-65
2024/03/24 00:16:28;;;;;;;0.05;0.05;;;;;;;-139.19;100.00;56970.53;5074525;28;20056;-65
2024/03/24 00:19:52;;;;;;;0.00;0.00;;;;;;;-139.19;100.00;56970.53;5074708;28;20391;-65
2024/03/24 00:23:16;;;;;;;0.10;0.10;;;;;;;-139.19;100.00;56970.53;5059367;28;20526;-65
2024/03/24 00:26:40;;;;;;;0.10;0.10;;;;;;;-139.19;100.00;56970.53;5080586;28;20081;-65
2024/03/24 00:30:04;;;;;;;0.25;0.25;;;;;;;-139.19;100.00;56970.53;5074193;28;20034;-65
2024/03/24 00:33:28;;;;;;;0.30;0.30;;;;;;;-139.19;100.00;56970.53;5093814;28;20395;-65
2024/03/24 00:36:51;;;;;;;0.10;0.10;;;;;;;-139.19;100.00;56970.53;5093826;28;20106;-65
2024/03/24 00:40:16;;;;;;;0.03;0.03;;;;;;;-139.19;100.00;56970.53;5093861;28;20031;-65
2024/03/24 00:43:40;;;;;;;0.03;0.03;;;;;;;-139.19;100.00;56970.53;5070428;28;20052;-65
2024/03/24 00:47:04;;;;;;;0.10;0.10;;;;;;;-139.19;100.00;56970.53;5093001;28;20050;-65
2024/03/24 00:50:27;;;;;;;0.10;0.10;;;;;;;-139.19;100.00;56970.53;5093580;28;20484;-65
2024/03/24 00:53:52;;;;;;;0.03;0.03;;;;;;;-139.19;100.00;56970.53;5093072;28;20032;-65
2024/03/24 00:57:16;;;;;;;0.10;0.10;;;;;;;-139.19;100.00;56970.53;5082580;28;20104;-65
2024/03/24 01:00:40;;;;;;;0.00;0.00;;;;;;;-139.19;100.00;56970.53;5068424;28;20031;-65
2024/03/24 01:04:04;;;;;;;0.10;0.10;;;;;;;-139.19;100.00;56970.53;5073522;28;20082;-65
2024/03/24 01:07:30;;;;;;;0.05;0.05;;;;;;;-139.19;100.00;56970.53;5067801;28;20029;-65
2024/03/24 01:10:54;;;;;;;0.10;0.10;;;;;;;-139.19;100.00;56970.53;5093443;28;20031;-65
2024/03/24 01:14:19;;;;;;;0.10;0.10;;;;;;;-139.19;100.00;56970.53;5093174;28;20057;-65
2024/03/24 01:17:43;;;;;;;0.05;0.05;;;;;;;-139.19;100.00;56970.53;5093015;28;20168;-65
2024/03/24 01:21:07;;;;;;;0.00;0.00;;;;;;;-139.19;100.00;56970.53;5065397;28;20472;-65
2024/03/24 01:24:31;;;;;;;0.10;0.10;;;;;;;-139.19;100.00;56970.53;5073334;28;20024;-65
2024/03/24 01:27:55;;;;;;;0.10;0.10;;;;;;;-139.19;100.00;56970.53;5070552;28;20060;-65
2024/03/24 01:31:19;;;;;;;0.10;0.10;;;;;;;-139.19;100.00;56970.53;5092843;28;20475;-65
2024/03/24 01:34:43;;;;;;;0.00;0.00;;;;;;;-139.19;100.00;56970.53;5092972;28;20034;-65
2024/03/24 01:38:07;;;;;;;0.00;0.00;;;;;;;-139.19;100.00;56970.53;5086799;28;20024;-65
2024/03/24 01:41:31;;;;;;;0.10;0.10;;;;;;;-139.19;100.00;56970.53;5093323;28;20217;-65
2024/03/24 01:44:54;;;;;;;0.00;0.00;;;;;;;-139.19;100.00;56970.53;5079545;28;20044;-65
2024/03/24 01:48:18;;;;;;;0.20;0.20;;;;;;;-139.19;100.00;56970.53;5088561;28;20486;-65
2024/03/24 01:51:42;;;;;;;0.10;0.10;;;;;;;-139.19;100.00;56970.53;5092365;28;20063;-65
2024/03/24 01:55:07;;;;;;;0.10;0.10;;;;;;;-139.19;100.00;56970.53;5092704;28;20081;-65
2024/03/24 01:58:32;;;;;;;0.10;0.10;;;;;;;-139.19;100.00;56970.53;5092816;28;20020;-65
2024/03/24 02:01:57;;;;;;;0.10;0.10;;;;;;;-139.19;100.00;56970.53;5074183;28;20043;-65
2024/03/24 02:05:27;;;;;;;0.03;0.03;;;;;;;-139.19;100.00;56970.53;5064556;28;20395;-65
2024/03/24 02:08:51;;;;;;;0.20;0.20;;;;;;;-139.19;100.00;56970.53;5072885;28;20036;-65
2024/03/24 02:12:15;;;;;;;0.20;0.20;;;;;;;-139.19;100.00;56970.53;5072892;28;20060;-65
2024/03/24 02:15:40;;;;;;;0.73;0.73;;;;;;;-139.19;100.00;56970.53;5072809;28;20058;-65
2024/03/24 02:19:04;;;;;;;0.00;0.00;;;;;;;-139.19;100.00;56970.53;5074171;28;20115;-65
2024/03/24 02:22:32;;;;;;;0.10;0.10;;;;;;;-139.19;100.00;56970.53;5065502;28;20103;-65
2024/03/24 02:25:56;;;;;;;0.15;0.15;;;;;;;-139.19;100.00;56970.53;5076848;28;20032;-65
2024/03/24 02:29:19;;;;;;;0.10;0.10;;;;;;;-139.19;100.00;56970.53;5078396;28;20029;-65
2024/03/24 02:32:44;;;;;;;0.10;0.10;;;;;;;-139.19;100.00;56970.53;5096222;28;20036;-65
2024/03/24 02:36:08;;;;;;;0.05;0.05;;;;;;;-139.19;100.00;56970.53;5096109;28;20028;-65
2024/03/24 02:39:32;;;;;;;0.28;0.28;;;;;;;-139.19;100.00;56970.53;5095778;28;20044;-65
2024/03/24 02:42:56;;;;;;;0.00;0.00;;;;;;;-139.19;100.00;56970.53;5091283;28;20565;-65
2024/03/24 02:46:20;;;;;;;0.13;0.13;;;;;;;-139.19;100.00;56970.53;5082507;28;20032;-66
2024/03/24 02:49:44;;;;;;;0.10;0.10;;;;;;;-139.19;100.00;56970.53;5079108;28;20483;-66
2024/03/24 02:53:08;;;;;;;0.08;0.08;;;;;;;-139.19;100.00;56970.53;5095562;28;20056;-66
2024/03/24 02:56:32;;;;;;;0.40;0.35;;;;;;;-139.19;100.00;56970.53;5096028;28;20106;-66
2024/03/24 02:59:57;;;;;;;0.10;0.10;;;;;;;-139.19;100.00;56970.53;5073976;28;20039;-66
2024/03/24 03:03:21;;;;;;;0.10;0.10;;;;;;;-139.19;100.00;56970.53;5095302;28;20528;-66
2024/03/24 03:06:45;;;;;;;0.00;0.00;;;;;;;-139.19;100.00;56970.53;5090245;28;20028;-66
2024/03/24 03:10:09;;;;;;;0.10;0.10;;;;;;;-139.19;100.00;56970.53;5076046;28;20503;-66
2024/03/24 03:13:33;;;;;;;0.10;0.10;;;;;;;-139.19;100.00;56970.53;5077240;28;20052;-66
2024/03/24 03:16:57;;;;;;;0.10;0.10;;;;;;;-139.19;100.00;56970.53;5093988;28;20088;-66
2024/03/24 03:20:24;;;;;;;0.10;0.10;;;;;;;-139.19;100.00;56970.53;5093906;28;20032;-66
2024/03/24 03:23:48;;;;;;;0.10;0.10;;;;;;;-139.19;100.00;56970.53;5093709;28;20049;-66
2024/03/24 03:27:12;;;;;;;0.20;0.20;;;;;;;-139.19;100.00;56970.53;5083603;28;20028;-66
2024/03/24 03:30:36;;;;;;;0.10;0.10;;;;;;;-139.19;100.00;56970.53;5075558;28;20066;-66
2024/03/24 03:34:00;;;;;;;0.00;0.00;;;;;;;-139.19;100.00;56970.53;5094137;28;20166;-66
2024/03/24 03:37:24;;;;;;;0.10;0.10;;;;;;;-139.19;100.00;56970.53;5075388;28;20074;-66
2024/03/24 03:40:48;;;;;;;0.00;0.00;;;;;;;-139.19;100.00;56970.53;5075524;28;20024;-66
2024/03/24 03:44:11;;;;;;;0.13;0.13;;;;;;;-139.19;100.00;56970.53;5082545;28;20487;-66
2024/03/24 03:47:35;;;;;;;0.10;0.10;;;;;;;-139.19;100.00;56970.53;5078146;28;20060;-66
2024/03/24 03:51:06;;;;;;;0.00;0.00;;;;;;;-139.19;100.00;56970.53;5094148;28;20463;-66
2024/03/24 03:54:31;;;;;;;0.00;0.00;;;;;;;-139.19;100.00;56970.53;5094724;28;20032;-65
2024/03/24 03:57:55;;;;;;;0.10;0.10;;;;;;;-139.19;100.00;56970.53;5094616;28;20501;-65
2024/03/24 04:01:19;;;;;;;0.10;0.10;;;;;;;-139.19;100.00;56970.53;5081593;28;20040;-65
2024/03/24 04:04:43;;;;;;;0.10;0.10;;;;;;;-139.19;100.00;56970.53;5075019;28;20530;-64
2024/03/24 04:08:07;;;;;;;0.10;0.10;;;;;;;-139.19;100.00;56970.53;5074875;28;20387;-65
2024/03/24 04:11:31;;;;;;;0.10;0.10;;;;;;;-139.19;100.00;56970.53;5074951;28;20560;-65
2024/03/24 04:14:57;;;;;;;0.10;0.10;;;;;;;-139.19;100.00;56970.53;5084327;28;20035;-65
2024/03/24 04:18:21;;;;;;;0.10;0.10;;;;;;;-139.19;100.00;56970.53;5090455;28;20029;-65
2024/03/24 04:21:45;;;;;;;0.10;0.10;;;;;;;-139.19;100.00;56970.53;5084641;28;20024;-65
2024/03/24 04:25:10;;;;;;;0.10;0.10;;;;;;;-139.19;100.00;56970.53;5093737;28;20059;-65
2024/03/24 04:28:34;;;;;;;0.10;0.10;;;;;;;-139.19;100.00;56970.53;5093900;28;20078;-65
2024/03/24 04:31:58;;;;;;;0.10;0.10;;;;;;;-139.19;100.00;56970.53;5094172;28;20390;-65
2024/03/24 04:35:22;;;;;;;0.05;0.05;;;;;;;-139.19;100.00;56970.53;5071777;28;20472;-65
2024/03/24 04:38:46;;;;;;;0.25;0.25;;;;;;;-139.19;100.00;56970.53;5082255;28;20024;-65
2024/03/24 04:42:10;;;;;;;0.08;0.08;;;;;;;-139.19;100.00;56970.53;5068806;28;20373;-65
2024/03/24 04:45:34;;;;;;;0.13;0.13;;;;;;;-139.19;100.00;56970.53;5074989;28;20040;-65
2024/03/24 04:48:58;;;;;;;0.05;0.05;;;;;;;-139.19;100.00;56970.53;5089898;28;20036;-65
2024/03/24 04:52:22;;;;;;;0.10;0.10;;;;;;;-139.19;100.00;56970.53;5074925;28;20039;-65
2024/03/24 04:55:46;;;;;;;0.10;0.10;;;;;;;-139.19;100.00;56970.53;5074018;28;20108;-65
2024/03/24 04:59:10;;;;;;;0.63;0.52;;;;;;;-139.19;100.00;56970.53;5073633;28;20509;-65
2024/03/24 05:02:34;;;;;;;0.10;0.10;;;;;;;-139.19;100.00;56970.53;5085949;28;20032;-65
2024/03/24 05:05:58;;;;;;;0.00;0.00;;;;;;;-139.19;100.00;56970.53;5090179;28;20066;-66
2024/03/24 05:09:22;;;;;;;0.00;0.00;;;;;;;-139.19;100.00;56970.53;5073616;28;20388;-66
2024/03/24 05:12:46;;;;;;;0.10;0.10;;;;;;;-139.19;100.00;56970.53;5073624;28;20035;-66
2024/03/24 05:16:10;;;;;;;0.00;0.00;;;;;;;-139.19;100.00;56970.53;5073835;28;20107;-66
2024/03/24 05:19:34;;;;;;;0.10;0.10;;;;;;;-139.19;100.00;56970.53;5093903;28;20094;-66
2024/03/24 05:22:57;;;;;;;0.10;0.10;;;;;;;-139.19;100.00;56970.53;5093677;28;20032;-66
2024/03/24 05:26:21;;;;;;;2.00;0.68;;;;;;;-139.19;100.00;56970.53;5093700;28;20130;-66
2024/03/24 05:29:45;;;;;;;0.40;0.40;;;;;;;-139.19;100.00;56970.53;5093760;28;20100;-66
2024/03/24 05:33:10;;;;;;;0.08;0.08;;;;;;;-139.19;100.00;56970.53;5093572;28;20386;-66
2024/03/24 05:36:34;;;;;;;0.10;0.10;;;;;;;-139.19;100.00;56970.53;5092298;28;20028;-66
2024/03/24 05:39:58;;;;;;;1.20;1.05;;;;;;;-139.19;100.00;56970.53;5054488;28;20380;-66
2024/03/24 05:43:21;;;;;;;0.00;0.00;;;;;;;-139.19;100.00;56970.53;5051971;28;20048;-66
2024/03/24 05:46:45;;;;;;;0.17;0.17;;;;;;;-139.19;100.00;56970.53;5053268;28;20021;-66
2024/03/24 05:50:09;;;;;;;0.10;0.10;;;;;;;-139.19;100.00;56970.53;5053045;28;20032;-66
2024/03/24 05:53:33;;;;;;;0.15;0.15;;;;;;;-139.19;100.00;56970.53;5053007;28;20108;-66
2024/03/24 05:56:57;;;;;;;0.47;0.47;;;;;;;-139.19;100.00;56970.53;5054378;28;20468;-66
2024/03/24 06:00:22;;;;;;;0.38;0.38;;;;;;;-139.19;100.00;56970.53;5077480;28;20081;-66
2024/03/24 06:03:45;;;;;;;0.00;0.00;;;;;;;-139.19;100.00;56970.53;5077395;28;20033;-66
2024/03/24 06:07:10;;;;;;;0.17;0.17;;;;;;;-139.19;100.00;56970.53;5076954;28;20036;-66
2024/03/24 06:10:40;;;;;;;0.22;0.22;;;;;;;-139.19;100.00;56970.53;5076897;28;20037;-66
2024/03/24 06:14:04;;;;;;;0.00;0.00;;;;;;;-139.19;100.00;56970.53;5077005;28;20032;-65
2024/03/24 06:17:27;;;;;;;0.17;0.17;;;;;;;-139.19;100.00;56970.53;5076945;28;20361;-65
2024/03/24 06:20:53;;;;;;;0.10;0.10;;;;;;;-139.19;100.00;56970.53;5076671;28;20604;-65
2024/03/24 06:24:17;;;;;;;0.20;0.20;;;;;;;-139.19;100.00;56970.53;5076643;28;20039;-65
2024/03/24 06:27:40;;;;;;;0.10;0.10;;;;;;;-139.19;100.00;56970.53;5075880;28;20472;-65
2024/03/24 06:31:05;;;;;;;0.10;0.10;;;;;;;-139.19;100.00;56970.53;5055596;28;20484;-65
2024/03/24 06:34:28;;;;;;;0.05;0.05;;;;;;;-139.19;100.00;56970.53;5068541;28;20435;-65
2024/03/24 06:37:52;;;;;;;0.17;0.17;;;;;;;-139.19;100.00;56970.53;5094374;28;20041;-75
2024/03/24 06:41:16;;;;;;;0.10;0.10;;;;;;;-139.19;100.00;56970.53;5069453;28;20033;-65
2024/03/24 06:44:42;;;;;;;0.10;0.10;;;;;;;-139.19;100.00;56970.53;5093632;28;20055;-65
2024/03/24 06:48:06;;;;;;;0.10;0.10;;;;;;;-139.19;100.00;56970.53;5074857;28;20044;-65
2024/03/24 06:51:30;;;;;;;0.20;0.20;;;;;;;-139.19;100.00;56970.53;5086531;28;20115;-65
2024/03/24 06:54:54;;;;;;;0.10;0.10;;;;;;;-139.19;100.00;56970.53;5089620;28;20577;-65
2024/03/24 06:58:18;;;;;;;0.20;0.20;;;;;;;-139.19;100.00;56970.53;5083152;28;20420;-65
2024/03/24 07:01:42;;;;;;;0.20;0.20;;;;;;;-139.19;100.00;56970.53;5093377;28;20032;-65
2024/03/24 07:05:20;;;;;;;0.10;0.10;;;;;;;-139.19;100.00;56970.53;5085356;28;20060;-65
2024/03/24 07:08:43;;;;;;;0.30;0.30;;;;;;;-139.19;100.00;56970.53;5088949;28;20040;-65
2024/03/24 07:12:07;;;;;;;0.00;0.00;;;;;;;-139.19;100.00;56970.53;5070062;28;20496;-65
2024/03/24 07:15:31;;;;;;;0.10;0.10;;;;;;;-139.19;100.00;56970.53;5075532;28;20024;-65
2024/03/24 07:18:55;;;;;;;0.10;0.10;;;;;;;-139.19;100.00;56970.53;5075647;28;20522;-65
2024/03/24 07:22:19;;;;;;;0.10;0.10;;;;;;;-139.19;100.00;56970.53;5075652;28;20056;-65
2024/03/24 07:25:46;;;;;;;3.63;0.77;;;;;;;-139.19;100.00;56970.53;5070231;28;20434;-65
2024/03/24 07:29:10;;;;;;;0.25;0.25;;;;;;;-139.19;100.00;56970.53;5073488;28;20476;-65
2024/03/24 07:32:34;;;;;;;0.35;0.35;;;;;;;-139.19;100.00;56970.53;5070427;28;20031;-65
2024/03/24 07:35:58;;;;;;;0.03;0.03;;;;;;;-139.19;100.00;56970.53;5095267;28;20108;-65
2024/03/24 07:39:25;;;;;;;0.28;0.28;;;;;;;-139.19;100.00;56970.53;5079031;28;20109;-65
2024/03/24 07:42:49;;;;;;;0.10;0.10;;;;;;;-139.19;100.00;56970.53;5093124;28;20073;-65
2024/03/24 07:46:13;;;;;;;0.10;0.10;;;;;;;-139.19;100.00;56970.53;5076604;28;20449;-65
2024/03/24 07:49:37;;;;;;;0.00;0.00;;;;;;;-139.19;100.00;56970.53;5092926;28;20028;-65
2024/03/24 07:53:01;;;;;;;0.10;0.10;;;;;;;-139.19;100.00;56970.53;5083065;28;20064;-64
2024/03/24 07:56:25;;;;;;;0.10;0.10;;;;;;;-139.19;100.00;56970.53;5083524;28;20384;-75
2024/03/24 07:59:49;;;;;;;0.52;0.52;;;;;;;-139.19;100.00;56970.53;5083595;28;20031;-76
2024/03/24 08:03:13;;;;;;;0.10;0.10;;;;;;;-139.19;100.00;56970.53;5075308;28;20107;-76
2024/03/24 08:06:36;;;;;;;0.00;0.00;;;;;;;-139.19;100.00;56970.53;5058009;28;20028;-75
2024/03/24 08:10:01;;;;;;;0.00;0.00;;;;;;;-139.19;100.00;56970.53;5071580;28;20475;-76
2024/03/24 08:13:24;;;;;;;0.03;0.03;;;;;;;-139.19;100.00;56970.53;5063925;28;20052;-76
2024/03/24 08:16:48;;;;;;;0.03;0.03;;;;;;;-139.19;100.00;56970.53;5074633;28;20423;-76
2024/03/24 08:20:12;;;;;;;0.43;0.40;;;;;;;-139.19;100.00;56970.53;5090236;28;20200;-77
2024/03/24 08:23:37;;;;;;;0.00;0.00;;;;;;;-139.19;100.00;56970.53;5076359;28;20467;-76
2024/03/24 08:27:01;;;;;;;0.10;0.10;;;;;;;-139.19;100.00;56970.53;5074628;28;20028;-76
2024/03/24 08:30:24;;;;;;;0.10;0.10;;;;;;;-139.19;100.00;56970.53;5074703;28;20453;-76
2024/03/24 08:33:48;;;;;;;0.08;0.08;;;;;;;-139.19;100.00;56970.53;5071917;28;20024;-76
2024/03/24 08:37:12;;;;;;;0.28;0.28;;;;;;;-139.19;100.00;56970.53;5093196;28;20572;-77
2024/03/24 08:40:36;;;;;;;0.05;0.05;;;;;;;-139.19;100.00;56970.53;5093880;28;20027;-63
2024/03/24 08:44:00;;;;;;;0.00;0.00;;;;;;;-139.19;100.00;56970.53;5068960;28;20135;-63
2024/03/24 08:47:25;;;;;;;0.55;0.55;;;;;;;-139.19;100.00;56970.53;5079878;28;20504;-63
2024/03/24 08:50:49;;;;;;;0.20;0.20;;;;;;;-139.19;100.00;56970.53;5054265;28;20036;-63
2024/03/24 08:54:13;;;;;;;0.15;0.15;;;;;;;-139.19;100.00;56970.53;5075225;28;20403;-63
2024/03/24 08:57:41;;;;;;;0.20;0.20;;;;;;;-139.19;100.00;56970.53;5087043;28;20044;-63
2024/03/24 09:01:06;;;;;;;0.10;0.10;;;;;;;-139.19;100.00;56970.53;5094009;28;20024;-63
2024/03/24 09:04:30;;;;;;;0.10;0.10;;;;;;;-139.19;100.00;56970.53;5094247;28;20036;-63
2024/03/24 09:07:54;;;;;;;0.00;0.00;;;;;;;-139.19;100.00;56970.53;5093982;28;20031;-63
2024/03/24 09:11:18;;;;;;;0.10;0.10;;;;;;;-139.19;100.00;56970.53;5093945;28;20024;-63
2024/03/24 09:14:42;;;;;;;0.15;0.15;;;;;;;-139.19;100.00;56970.53;5093826;28;20028;-63
2024/03/24 09:18:06;;;;;;;0.22;0.22;;;;;;;-139.19;100.00;56970.53;5093776;28;20028;-63
2024/03/24 09:21:29;;;;;;;0.20;0.20;;;;;;;-139.19;100.00;56970.53;5093740;28;20498;-63
2024/03/24 09:24:53;;;;;;;0.10;0.10;;;;;;;-139.19;100.00;56970.53;5093781;28;20043;-63
2024/03/24 09:28:18;;;;;;;0.15;0.15;;;;;;;-139.19;100.00;56970.53;5093752;28;20024;-63
2024/03/24 09:31:52;;;;;;;0.10;0.10;;;;;;;-139.19;100.00;56970.53;5093537;28;20383;-63
2024/03/24 09:35:16;;;;;;;0.00;0.00;;;;;;;-139.19;100.00;56970.53;5093793;28;20463;-63
2024/03/24 09:38:39;;;;;;;0.10;0.10;;;;;;;-139.19;100.00;56970.53;5093756;28;20024;-63
2024/03/24 09:42:05;;;;;;;0.00;0.00;;;;;;;-139.19;100.00;56970.53;5093380;28;20047;-63
2024/03/24 09:45:44;;;;;;;1.05;0.85;;;;;;;-139.19;100.00;56970.53;5092190;28;20075;-63
2024/03/24 09:49:14;;;;;;;0.15;0.15;;;;;;;-139.19;100.00;56970.53;5093285;28;20085;-63
2024/03/24 09:52:40;;;;;;;0.00;0.00;;;;;;;-139.19;100.00;56970.53;5093279;28;20111;-63
2024/03/24 09:56:07;;;;;;;0.17;0.17;;;;;;;-139.19;100.00;56970.53;5093309;28;20035;-63
2024/03/24 09:59:34;;;;;;;0.05;0.05;;;;;;;-139.19;100.00;56970.53;5093324;28;20473;-63
2024/03/24 10:02:59;;;;;;;0.10;0.10;;;;;;;-139.19;100.00;56970.53;5093273;28;20024;-63
2024/03/24 10:06:27;;;;;;;0.00;0.00;;;;;;;-139.19;100.00;56970.53;5093254;28;20028;-63
2024/03/24 10:09:51;;;;;;;4.32;1.30;;;;;;;-139.19;100.00;56970.53;5093296;28;20027;-63
2024/03/24 10:13:15;;;;;;;0.15;0.15;;;;;;;-139.19;100.00;56970.53;5093444;28;20081;-63
2024/03/24 10:16:39;;;;;;;0.00;0.00;;;;;;;-139.19;100.00;56970.53;5093416;28;20467;-63
2024/03/24 10:20:13;;;;;;;0.00;0.00;;;;;;;-139.19;100.00;56970.53;5093143;28;20133;-63
2024/03/24 10:23:37;;;;;;;0.10;0.10;;;;;;;-139.19;100.00;56970.53;5093315;28;20536;-63
2024/03/24 10:27:01;;;;;;;0.00;0.00;;;;;;;-139.19;100.00;56970.53;5093340;28;20495;-63
2024/03/24 10:30:25;;;;;;;0.32;0.32;;;;;;;-139.19;100.00;56970.53;5093005;28;20036;-63
2024/03/24 10:33:50;;;;;;;0.00;0.00;;;;;;;-139.19;100.00;56970.53;5092992;28;20111;-63
2024/03/24 10:37:14;;;;;;;0.63;0.63;;;;;;;-139.19;100.00;56970.53;5093174;28;20035;-63
2024/03/24 10:40:39;;;;;;;0.20;0.10;;;;;;;-139.19;100.00;56970.53;5092932;28;20376;-63
2024/03/24 10:44:14;;;;;;;0.10;0.10;;;;;;;-139.19;100.00;56970.53;5091665;28;20048;-63
2024/03/24 10:47:38;;;;;;;0.65;0.38;;;;;;;-139.19;100.00;56970.53;5096584;28;20114;-63
2024/03/24 10:51:07;;;;;;;0.20;0.20;;;;;;;-139.19;100.00;56970.53;5096722;28;20425;-63
2024/03/24 10:54:32;;;;;;;0.10;0.10;;;;;;;-139.19;100.00;56970.53;5096857;28;20061;-63
2024/03/24 10:57:58;;;;;;;0.10;0.10;;;;;;;-139.19;100.00;56970.53;5096451;28;20540;-63
2024/03/24 11:01:22;;;;;;;0.00;0.00;;;;;;;-139.19;100.00;56970.53;5096412;28;20028;-63
2024/03/24 11:04:47;;;;;;;0.10;0.10;;;;;;;-139.19;100.00;56970.53;5096391;28;20028;-63
2024/03/24 11:08:15;;;;;;;0.45;0.40;;;;;;;-139.19;100.00;56970.53;5096267;28;20420;-63
2024/03/24 11:11:40;;;;;;;0.10;0.10;;;;;;;-139.19;100.00;56970.53;5096356;28;20107;-63
2024/03/24 11:15:07;;;;;;;0.10;0.10;;;;;;;-139.19;100.00;56970.53;5096092;28;20053;-63
2024/03/24 11:18:32;;;;;;;0.00;0.00;;;;;;;-139.19;100.00;56970.53;5077939;28;20065;-63
2024/03/24 11:21:57;;;;;;;0.32;0.32;;;;;;;-139.19;100.00;56970.53;5096058;28;20467;-63
2024/03/24 11:25:23;;;;;;;0.10;0.10;;;;;;;-139.19;100.00;56970.53;5096153;28;20028;-63
2024/03/24 11:28:48;;;;;;;0.10;0.10;;;;;;;-139.19;100.00;56970.53;5095798;28;20028;-63
2024/03/24 11:32:19;;;;;;;0.00;0.00;;;;;;;-139.19;100.00;56970.53;5095996;28;20031;-63
2024/03/24 11:35:52;;;;;;;0.10;0.10;;;;;;;-139.19;100.00;56970.53;5095974;28;20070;-63
2024/03/24 11:39:17;;;;;;;0.65;0.65;;;;;;;-139.19;100.00;56970.53;5095699;28;20059;-63
2024/03/24 11:42:51;;;;;;;0.00;0.00;;;;;;;-139.19;100.00;56970.53;5095858;28;20487;-63
2024/03/24 11:46:23;;;;;;;0.00;0.00;;;;;;;-139.19;100.00;56970.53;5095516;28;20047;-63
2024/03/24 11:49:49;;;;;;;0.10;0.10;;;;;;;-139.19;100.00;56970.53;5095684;28;20476;-63
2024/03/24 11:53:15;;;;;;;0.10;0.10;;;;;;;-139.19;100.00;56970.53;5095318;28;20084;-63
2024/03/24 11:56:42;;;;;;;0.00;0.00;;;;;;;-139.19;100.00;56970.53;5093517;28;20024;-63
2024/03/24 12:00:08;;;;;;;0.00;0.00;;;;;;;-139.19;100.00;56970.53;5095431;28;20020;-63
2024/03/24 12:03:33;;;;;;;0.20;0.20;;;;;;;-139.19;100.00;56970.53;5095453;28;20443;-63
2024/03/24 12:06:57;;;;;;;0.10;0.10;;;;;;;-139.19;100.00;56970.53;5075055;28;20031;-66
2024/03/24 12:10:21;;;;;;;0.28;0.28;;;;;;;-139.19;100.00;56970.53;5077846;28;20024;-66
2024/03/24 12:13:45;;;;;;;0.00;0.00;;;;;;;-139.19;100.00;56970.53;5074710;28;20040;-66
2024/03/24 12:17:12;;;;;;;0.10;0.10;;;;;;;-139.19;100.00;56970.53;5074741;28;20067;-66
2024/03/24 12:20:37;;;;;;;0.00;0.00;;;;;;;-139.19;100.00;56970.53;5074546;28;20032;-66
2024/03/24 12:24:03;;;;;;;0.10;0.10;;;;;;;-139.19;100.00;56970.53;5074775;28;20476;-66
2024/03/24 12:27:27;;;;;;;0.20;0.20;;;;;;;-139.19;100.00;56970.53;5066958;28;20024;-65
2024/03/24 12:30:55;;;;;;;0.10;0.10;;;;;;;-139.19;100.00;56970.53;5062102;28;20036;-66
2024/03/24 12:34:22;;;;;;;3.75;1.65;;;;;;;-139.19;100.00;56970.53;5065638;28;20032;-65
2024/03/24 12:37:47;;;;;;;0.05;0.05;;;;;;;-139.19;100.00;56970.53;5073612;28;20058;-66
2024/03/24 12:41:21;;;;;;;0.08;0.08;;;;;;;-139.19;100.00;56970.53;5073193;28;20079;-66
2024/03/24 12:45:05;;;;;;;0.00;0.00;;;;;;;-139.19;100.00;56970.53;5063344;28;20462;-65
2024/03/24 12:48:29;;;;;;;0.40;0.40;;;;;;;-139.19;100.00;56970.53;5073480;28;20027;-66
2024/03/24 12:51:56;;;;;;;0.10;0.10;;;;;;;-139.19;100.00;56970.53;5073439;28;20028;-66
2024/03/24 12:55:20;;;;;;;1.00;0.40;;;;;;;-139.19;100.00;56970.53;5073387;28;20472;-66
2024/03/24 12:58:45;;;;;;;0.00;0.00;;;;;;;-139.19;100.00;56970.53;5072173;28;20040;-66
2024/03/24 13:02:10;;;;;;;0.40;0.40;;;;;;;-139.19;100.00;56970.53;5053171;28;20017;-65
2024/03/24 13:05:33;;;;;;;0.00;0.00;;;;;;;-139.19;100.00;56970.53;5053276;28;20044;-66
2024/03/24 13:08:58;;;;;;;0.00;0.00;;;;;;;-139.19;100.00;56970.53;5052488;28;20112;-65
2024/03/24 13:12:22;;;;;;;0.08;0.08;;;;;;;-139.19;100.00;56970.53;5056875;28;20476;-65
2024/03/24 13:15:46;;;;;;;0.10;0.10;;;;;;;-139.19;100.00;56970.53;5060797;28;20035;-66
2024/03/24 13:19:19;;;;;;;0.00;0.00;;;;;;;-139.19;100.00;56970.53;5053109;28;20031;-65
2024/03/24 13:22:48;;;;;;;0.00;0.00;;;;;;;-139.19;100.00;56970.53;5052934;28;20032;-65
2024/03/24 13:26:18;;;;;;;0.00;0.00;;;;;;;-139.19;100.00;56970.53;5052818;28;20035;-65
2024/03/24 13:29:42;;;;;;;0.00;0.00;;;;;;;-139.19;100.00;56970.53;5057761;28;20107;-66
2024/03/24 13:33:06;;;;;;;0.00;0.00;;;;;;;-139.19;100.00;56970.53;5072554;28;20028;-65
2024/03/24 13:36:39;;;;;;;10.95;1.10;;;;;;;-139.19;100.00;56970.53;5072864;28;20032;-65
2024/03/24 13:40:17;;;;;;;;;;;;;;;-139.19;100.00;56970.53;5073300;28;20066;-65
2024/03/24 13:44:18;;;;;;;3.65;0.82;;;;;;;-139.19;100.00;56970.53;5072316;28;19919;-66
2024/03/24 13:48:10;;;;;;;0.00;0.00;;;;;;;-139.19;100.00;56970.53;5032752;28;20055;-66
2024/03/24 13:51:37;;;;;;;0.25;0.22;;;;;;;-139.19;100.00;56970.53;5025120;28;20044;-65
2024/03/24 13:55:06;;;;;;;0.10;0.10;;;;;;;-139.19;100.00;56970.53;5027331;28;20029;-65
2024/03/24 13:58:30;;;;;;;0.15;0.15;;;;;;;-139.19;100.00;56970.53;5022171;28;20083;-66
2024/03/24 14:01:55;;;;;;;0.10;0.10;;;;;;;-139.19;100.00;56970.53;5021979;28;20124;-66
2024/03/24 14:05:19;;;;;;;0.10;0.10;;;;;;;-139.19;100.00;56970.53;5032571;28;20025;-66
2024/03/24 14:08:43;;;;;;;0.25;0.17;;;;;;;-139.19;100.00;56970.53;5017842;28;20037;-66
2024/03/24 14:12:08;;;;;;;1.85;0.30;;;;;;;-139.19;100.00;56970.53;5029500;28;20114;-65
2024/03/24 14:15:41;;;;;;;0.93;0.22;;;;;;;-139.19;100.00;56970.53;5013137;28;20038;-66
2024/03/24 14:19:24;;;;;;;0.10;0.10;;;;;;;-139.19;100.00;56970.53;5013545;28;20473;-65
2024/03/24 14:23:03;;;;;;;0.63;0.28;;;;;;;-139.19;100.00;56970.53;5025361;28;20065;-66
2024/03/24 14:26:29;;;;;;;0.10;0.10;;;;;;;-139.19;100.00;56970.53;5033380;28;20044;-65
2024/03/24 14:29:53;;;;;;;0.00;0.00;;;;;;;-139.19;100.00;56970.53;5039809;28;20063;-65
2024/03/24 14:33:16;;;;;;;0.10;0.10;;;;;;;-139.19;100.00;56970.53;5026043;28;20030;-66
2024/03/24 14:37:01;;;;;;;0.05;0.05;;;;;;;-139.19;100.00;56970.53;5029793;28;20370;-66
2024/03/24 14:40:43;;;;;;;0.00;0.00;;;;;;;-139.19;100.00;56970.53;5035383;28;20080;-66
2024/03/24 14:44:12;;;;;;;0.87;0.40;;;;;;;-139.19;100.00;56970.53;5037657;28;20539;-65
2024/03/24 14:48:11;;;;;;;0.00;0.00;;;;;;;-139.19;100.00;56970.53;5071316;28;20029;-66
2024/03/24 14:51:35;;;;;;;0.00;0.00;;;;;;;-139.19;100.00;56970.53;5073518;28;20107;-65
2024/03/24 14:54:59;;;;;;;0.00;0.00;;;;;;;-139.19;100.00;56970.53;5068109;28;20403;-65
2024/03/24 14:58:24;;;;;;;0.00;0.00;;;;;;;-139.19;100.00;56970.53;5067571;28;20043;-66
2024/03/24 15:01:49;;;;;;;0.00;0.00;;;;;;;-139.19;100.00;56970.53;5068379;28;20444;-66
2024/03/24 15:05:14;;;;;;;0.10;0.10;;;;;;;-139.19;100.00;56970.53;5071460;28;20032;-65
2024/03/24 15:08:38;;;;;;;0.73;0.47;;;;;;;-139.19;100.00;56970.53;5055468;28;20520;-66
2024/03/24 15:12:02;;;;;;;0.08;0.08;;;;;;;-139.19;100.00;56970.53;5064748;28;20078;-65
2024/03/24 15:15:26;;;;;;;0.00;0.00;;;;;;;-139.19;100.00;56970.53;5076016;28;20039;-66
2024/03/24 15:18:50;;;;;;;0.00;0.00;;;;;;;-139.19;100.00;56970.53;5075923;28;20476;-66
2024/03/24 15:22:14;;;;;;;0.00;0.00;;;;;;;-139.19;100.00;56970.53;5075813;28;20465;-65
2024/03/24 15:25:38;;;;;;;0.10;0.10;;;;;;;-139.19;100.00;56970.53;5075944;28;20434;-65
2024/03/24 15:29:03;;;;;;;0.00;0.00;;;;;;;-139.19;100.00;56970.53;5075543;28;20032;-66
2024/03/24 15:32:27;;;;;;;0.15;0.15;;;;;;;-139.19;100.00;56970.53;5074763;28;20020;-66
2024/03/24 15:35:51;;;;;;;0.20;0.20;;;;;;;-139.19;100.00;56970.53;5075647;28;20024;-66